createdAt,value
2022-09-04T00:04:30.059Z,1.70
2022-09-04T00:09:41.958Z,1.50
2022-09-04T00:14:51.807Z,2.00
2022-09-04T00:20:31.082Z,1.80
2022-09-04T00:25:54.751Z,1.50
2022-09-04T00:31:39.696Z,1.30
2022-09-04T00:36:52.383Z,1.50
2022-09-04T00:42:26.073Z,1.40
2022-09-04T00:47:49.533Z,1.70
2022-09-04T00:53:10.695Z,1.67
2022-09-04T00:58:37.514Z,1.67
2022-09-04T01:03:46.366Z,1.75
2022-09-04T01:09:22.835Z,1.80
2022-09-04T01:14:52.972Z,1.87
2022-09-04T01:20:29.111Z,1.67
2022-09-04T01:25:56.892Z,1.73
2022-09-04T01:31:09.943Z,2.00
2022-09-04T01:36:28.646Z,1.80
2022-09-04T01:41:38.140Z,1.85
2022-09-04T01:47:06.501Z,1.90
2022-09-04T01:52:09.138Z,1.73
2022-09-04T01:57:30.383Z,1.85
2022-09-04T02:02:44.978Z,2.25
2022-09-04T02:08:04.548Z,1.90
2022-09-04T02:13:15.882Z,1.50
2022-09-04T02:18:32.432Z,1.90
2022-09-04T02:23:53.535Z,1.70
2022-09-04T02:29:02.223Z,1.60
2022-09-04T02:34:14.764Z,1.75
2022-09-04T02:39:32.414Z,1.83
2022-09-04T02:45:05.911Z,1.73
2022-09-04T02:50:32.843Z,1.50
2022-09-04T02:56:01.184Z,1.60
2022-09-04T03:01:24.845Z,1.63
2022-09-04T03:06:46.147Z,1.40
2022-09-04T03:12:01.872Z,1.67
2022-09-04T03:17:23.840Z,1.80
2022-09-04T03:23:03.530Z,1.55
2022-09-04T03:28:13.927Z,1.70
2022-09-04T03:33:29.168Z,1.50
2022-09-04T03:38:34.922Z,1.88
2022-09-04T03:43:40.420Z,1.63
2022-09-04T03:48:58.156Z,1.83
2022-09-04T03:54:08.954Z,1.50
2022-09-04T03:59:20.563Z,1.60
2022-09-04T04:04:54.639Z,1.67
2022-09-04T04:10:17.641Z,1.70
2022-09-04T04:15:51.302Z,1.80
2022-09-04T04:21:06.227Z,1.80
2022-09-04T04:26:15.639Z,1.40
2022-09-04T04:31:18.483Z,1.50
2022-09-04T04:36:41.394Z,1.65
2022-09-04T04:42:21.364Z,1.60
2022-09-04T04:48:02.566Z,1.90
2022-09-04T04:53:32.876Z,1.70
2022-09-04T04:59:21.415Z,1.55
2022-09-04T05:04:38.778Z,1.70
2022-09-04T05:09:53.304Z,1.90
2022-09-04T05:15:04.531Z,1.70
2022-09-04T05:20:24.698Z,1.95
2022-09-04T05:26:09.988Z,1.80
2022-09-04T05:31:17.133Z,1.80
2022-09-04T05:36:30.097Z,1.73
2022-09-04T05:41:40.578Z,1.95
2022-09-04T05:47:20.767Z,1.70
2022-09-04T05:52:26.763Z,1.75
2022-09-04T05:57:48.335Z,1.48
2022-09-04T06:02:57.498Z,1.77
2022-09-04T06:08:41.363Z,1.45
2022-09-04T06:13:56.402Z,1.63
2022-09-04T06:19:30.329Z,1.58
2022-09-04T06:24:58.726Z,1.60
2022-09-04T06:30:08.504Z,1.80
2022-09-04T06:35:33.870Z,1.60
2022-09-04T06:40:57.053Z,1.80
2022-09-04T06:46:16.462Z,1.90
2022-09-04T06:52:06.368Z,1.77
2022-09-04T07:02:08.538Z,1.70
2022-09-04T07:07:33.145Z,1.80
2022-09-04T07:12:39.571Z,1.88
2022-09-04T07:18:01.441Z,1.85
2022-09-04T07:23:51.716Z,1.75
2022-09-04T07:34:34.421Z,1.70
2022-09-04T07:39:49.321Z,1.60
2022-09-04T07:45:06.997Z,2.40
2022-09-04T07:50:20.814Z,1.40
2022-09-04T07:55:27.175Z,1.83
2022-09-04T08:00:59.397Z,1.63
2022-09-04T08:06:32.020Z,2.30
2022-09-04T08:11:53.894Z,1.83
2022-09-04T08:17:44.344Z,1.88
2022-09-04T08:23:06.696Z,1.88
2022-09-04T08:28:18.583Z,1.80
2022-09-04T08:33:48.419Z,1.58
2022-09-04T08:39:36.733Z,1.65
2022-09-04T08:45:18.313Z,1.40
2022-09-04T08:50:52.140Z,1.60
2022-09-04T08:56:11.091Z,1.43
2022-09-04T09:01:27.200Z,1.73
2022-09-04T09:06:57.175Z,1.40
2022-09-04T09:16:56.967Z,1.40
2022-09-04T09:22:24.976Z,1.67
2022-09-04T09:27:48.373Z,1.23
2022-09-04T09:37:50.225Z,1.38
2022-09-04T09:43:02.799Z,1.63
2022-09-04T09:48:53.577Z,1.52
2022-09-04T09:54:08.284Z,1.60
2022-09-04T09:59:30.117Z,1.63
2022-09-04T10:05:05.377Z,1.52
2022-09-04T10:10:09.320Z,1.60
2022-09-04T10:35:18.953Z,1.65
2022-09-04T10:40:56.870Z,1.30
2022-09-04T11:26:54.467Z,1.40
2022-09-04T11:32:13.534Z,1.58
2022-09-04T11:37:38.862Z,1.23
2022-09-04T11:43:07.759Z,1.63
2022-09-04T11:48:42.163Z,1.40
2022-09-04T11:54:21.495Z,1.40
2022-09-04T11:59:40.717Z,1.70
2022-09-04T12:04:44.130Z,1.48
2022-09-04T12:15:28.106Z,1.20
2022-09-04T12:31:44.172Z,1.52
2022-09-04T12:37:29.846Z,1.33
2022-09-04T12:42:43.097Z,1.15
2022-09-04T12:48:24.685Z,1.40
2022-09-04T12:53:52.934Z,1.65
2022-09-04T12:59:19.399Z,1.30
2022-09-04T13:04:30.720Z,1.30
2022-09-04T13:09:53.275Z,1.20
2022-09-04T13:15:03.906Z,1.53
2022-09-04T13:20:26.865Z,1.20
2022-09-04T13:25:43.247Z,1.33
2022-09-04T13:31:16.095Z,1.38
2022-09-04T13:36:20.152Z,1.10
2022-09-04T13:41:44.245Z,1.40
2022-09-04T13:46:55.542Z,1.35
2022-09-04T13:52:14.001Z,1.25
2022-09-04T13:57:22.012Z,1.20
2022-09-04T14:02:28.835Z,1.52
2022-09-04T14:07:39.624Z,1.48
2022-09-04T14:13:01.353Z,1.07
2022-09-04T14:18:17.592Z,1.30
2022-09-04T14:23:29.731Z,1.50
2022-09-04T14:28:47.219Z,1.50
2022-09-04T14:34:43.827Z,1.30
2022-09-04T14:40:07.811Z,1.42
2022-09-04T14:45:33.633Z,1.40
2022-09-04T14:50:53.282Z,1.38
2022-09-04T14:56:21.544Z,1.20
2022-09-04T15:01:26.742Z,1.55
2022-09-04T15:07:10.366Z,1.42
2022-09-04T15:12:25.611Z,1.27
2022-09-04T15:17:31.667Z,1.30
2022-09-04T15:22:46.391Z,1.33
2022-09-04T15:28:11.696Z,1.60
2022-09-04T15:43:48.307Z,1.23
2022-09-04T15:49:17.131Z,1.52
2022-09-04T15:54:32.668Z,1.40
2022-09-04T15:59:41.641Z,1.30
2022-09-04T16:05:04.406Z,1.60
2022-09-04T16:15:32.454Z,1.45
2022-09-04T16:20:47.882Z,1.00
2022-09-04T16:25:52.779Z,1.25
2022-09-04T16:31:07.472Z,1.30
2022-09-04T16:36:12.236Z,1.10
2022-09-04T16:41:39.551Z,1.50
2022-09-04T16:47:03.348Z,1.60
2022-09-04T16:52:25.141Z,1.70
2022-09-04T16:57:54.356Z,1.77
2022-09-04T17:03:09.835Z,2.10
2022-09-04T17:08:19.449Z,1.60
2022-09-04T17:13:37.105Z,1.75
2022-09-04T17:18:54.357Z,1.73
2022-09-04T17:29:07.929Z,1.80
2022-09-04T17:29:54.691Z,1.85
2022-09-04T17:40:37.252Z,1.90
2022-09-04T17:41:36.670Z,1.95
2022-09-04T17:46:27.539Z,1.90
2022-09-04T17:51:48.328Z,2.10
2022-09-04T17:57:05.601Z,2.03
2022-09-04T18:02:28.939Z,2.17
2022-09-04T18:08:08.857Z,2.40
2022-09-04T18:13:37.380Z,2.40
2022-09-04T18:18:53.070Z,2.03
2022-09-04T18:24:02.497Z,2.35
2022-09-04T18:31:00.367Z,2.40
2022-09-04T18:37:24.423Z,2.40
2022-09-04T18:40:56.907Z,2.35
2022-09-04T18:50:31.759Z,2.40
2022-09-04T18:51:31.878Z,2.03
2022-09-04T18:56:43.866Z,2.13
2022-09-04T19:01:58.194Z,2.15
2022-09-04T19:07:17.765Z,1.98
2022-09-04T19:12:24.653Z,2.13
2022-09-04T19:17:41.122Z,1.92
2022-09-04T19:22:53.638Z,2.17
2022-09-04T19:28:36.229Z,2.00
2022-09-04T19:33:57.052Z,2.35
2022-09-04T19:45:55.600Z,2.28
2022-09-04T19:46:13.883Z,2.10
2022-09-04T19:53:22.200Z,2.20
2022-09-04T19:55:37.615Z,2.28
2022-09-04T20:00:49.851Z,2.20
2022-09-04T20:06:02.098Z,2.33
2022-09-04T20:11:36.124Z,2.50
2022-09-04T20:16:51.885Z,2.50
2022-09-04T20:22:03.774Z,2.40
2022-09-04T20:27:28.074Z,1.90
2022-09-04T20:32:38.635Z,2.42
2022-09-04T20:37:46.570Z,1.92
2022-09-04T20:42:56.473Z,1.88
2022-09-04T20:52:50.003Z,2.03
2022-09-04T20:54:08.850Z,1.98
2022-09-04T21:03:05.740Z,1.63
2022-09-04T21:05:12.019Z,1.55
2022-09-04T21:10:43.326Z,1.85
2022-09-04T21:15:47.928Z,2.08
2022-09-04T21:21:00.471Z,1.67
2022-09-04T21:26:28.987Z,1.70
2022-09-04T21:32:17.794Z,1.75
2022-09-04T21:37:55.334Z,1.60
2022-09-04T21:43:21.936Z,1.70
2022-09-04T21:48:28.771Z,1.83
2022-09-04T21:54:26.971Z,1.70
2022-09-04T22:02:43.809Z,1.50
2022-09-04T22:05:46.094Z,1.80
2022-09-04T22:13:40.555Z,1.77
2022-09-04T22:16:31.104Z,1.70
2022-09-04T22:22:03.153Z,1.48
2022-09-04T22:27:25.610Z,2.00
2022-09-04T22:32:47.484Z,1.60
2022-09-04T22:38:22.507Z,1.85
2022-09-04T22:43:27.945Z,1.67
2022-09-04T22:49:11.737Z,1.70
2022-09-04T22:54:35.085Z,1.77
2022-09-04T23:00:14.357Z,1.67
2022-09-04T23:05:37.013Z,1.52
2022-09-04T23:13:50.971Z,1.73
2022-09-04T23:17:19.615Z,1.70
2022-09-04T23:26:36.373Z,2.00
2022-09-04T23:27:59.199Z,1.95
2022-09-04T23:33:12.198Z,1.77
2022-09-04T23:38:50.818Z,1.65
2022-09-04T23:44:31.598Z,1.50
2022-09-04T23:50:01.038Z,1.80
2022-09-04T23:55:20.608Z,1.77
